sensor_id;sensor_type;location;lat;lon;timestamp;P1;durP1;ratioP1;P2;durP2;ratioP2
11197;SDS011;5655;48.744;9.162;2024-02-16T00:00:07;4.53;;;3.33;;
11197;SDS011;5655;48.744;9.162;2024-02-16T00:02:36;4.80;;;2.90;;
11197;SDS011;5655;48.744;9.162;2024-02-16T00:05:01;4.22;;;2.95;;
11197;SDS011;5655;48.744;9.162;2024-02-16T00:07:28;4.40;;;3.22;;
11197;SDS011;5655;48.744;9.162;2024-02-16T00:09:53;3.88;;;3.25;;
11197;SDS011;5655;48.744;9.162;2024-02-16T00:12:18;6.47;;;3.38;;
11197;SDS011;5655;48.744;9.162;2024-02-16T00:14:44;5.07;;;3.10;;
11197;SDS011;5655;48.744;9.162;2024-02-16T00:17:11;3.28;;;2.65;;
11197;SDS011;5655;48.744;9.162;2024-02-16T00:19:36;7.90;;;3.10;;
11197;SDS011;5655;48.744;9.162;2024-02-16T00:22:02;4.53;;;2.85;;
11197;SDS011;5655;48.744;9.162;2024-02-16T00:24:27;4.25;;;3.42;;
11197;SDS011;5655;48.744;9.162;2024-02-16T00:26:53;4.25;;;3.22;;
11197;SDS011;5655;48.744;9.162;2024-02-16T00:29:18;4.85;;;3.05;;
11197;SDS011;5655;48.744;9.162;2024-02-16T00:31:44;4.95;;;3.22;;
11197;SDS011;5655;48.744;9.162;2024-02-16T00:34:09;5.25;;;2.90;;
11197;SDS011;5655;48.744;9.162;2024-02-16T00:36:35;4.70;;;3.03;;
11197;SDS011;5655;48.744;9.162;2024-02-16T00:39:00;6.05;;;2.50;;
11197;SDS011;5655;48.744;9.162;2024-02-16T00:41:26;4.50;;;2.45;;
11197;SDS011;5655;48.744;9.162;2024-02-16T00:43:51;3.80;;;2.80;;
11197;SDS011;5655;48.744;9.162;2024-02-16T00:46:17;3.42;;;2.83;;
11197;SDS011;5655;48.744;9.162;2024-02-16T00:48:43;5.10;;;2.78;;
11197;SDS011;5655;48.744;9.162;2024-02-16T00:51:08;3.13;;;2.60;;
11197;SDS011;5655;48.744;9.162;2024-02-16T00:53:34;3.72;;;2.35;;
11197;SDS011;5655;48.744;9.162;2024-02-16T00:55:59;3.72;;;2.50;;
11197;SDS011;5655;48.744;9.162;2024-02-16T00:58:24;3.83;;;2.60;;
11197;SDS011;5655;48.744;9.162;2024-02-16T01:00:50;5.53;;;2.70;;
11197;SDS011;5655;48.744;9.162;2024-02-16T01:03:15;5.95;;;2.80;;
11197;SDS011;5655;48.744;9.162;2024-02-16T01:05:40;3.13;;;2.72;;
11197;SDS011;5655;48.744;9.162;2024-02-16T01:08:06;5.38;;;2.70;;
11197;SDS011;5655;48.744;9.162;2024-02-16T01:10:31;5.05;;;2.72;;
11197;SDS011;5655;48.744;9.162;2024-02-16T01:12:57;5.03;;;2.58;;
11197;SDS011;5655;48.744;9.162;2024-02-16T01:15:22;3.72;;;2.78;;
11197;SDS011;5655;48.744;9.162;2024-02-16T01:17:48;3.25;;;2.13;;
11197;SDS011;5655;48.744;9.162;2024-02-16T01:20:13;5.88;;;2.42;;
11197;SDS011;5655;48.744;9.162;2024-02-16T01:22:39;7.43;;;3.15;;
11197;SDS011;5655;48.744;9.162;2024-02-16T01:25:05;2.90;;;2.60;;
11197;SDS011;5655;48.744;9.162;2024-02-16T01:27:31;3.60;;;2.50;;
11197;SDS011;5655;48.744;9.162;2024-02-16T01:29:57;3.70;;;2.60;;
11197;SDS011;5655;48.744;9.162;2024-02-16T01:32:22;4.20;;;2.60;;
11197;SDS011;5655;48.744;9.162;2024-02-16T01:34:47;3.30;;;2.50;;
11197;SDS011;5655;48.744;9.162;2024-02-16T01:37:14;7.35;;;2.80;;
11197;SDS011;5655;48.744;9.162;2024-02-16T01:39:40;4.72;;;2.88;;
11197;SDS011;5655;48.744;9.162;2024-02-16T01:42:05;4.38;;;2.45;;
11197;SDS011;5655;48.744;9.162;2024-02-16T01:44:31;4.55;;;2.40;;
11197;SDS011;5655;48.744;9.162;2024-02-16T01:46:56;4.13;;;2.50;;
11197;SDS011;5655;48.744;9.162;2024-02-16T01:49:21;3.38;;;2.15;;
11197;SDS011;5655;48.744;9.162;2024-02-16T01:51:47;4.80;;;2.38;;
11197;SDS011;5655;48.744;9.162;2024-02-16T01:54:12;3.72;;;2.55;;
11197;SDS011;5655;48.744;9.162;2024-02-16T01:56:39;3.95;;;2.42;;
11197;SDS011;5655;48.744;9.162;2024-02-16T01:59:05;2.75;;;2.13;;
11197;SDS011;5655;48.744;9.162;2024-02-16T02:01:30;3.30;;;2.08;;
11197;SDS011;5655;48.744;9.162;2024-02-16T02:03:55;3.65;;;2.25;;
11197;SDS011;5655;48.744;9.162;2024-02-16T02:06:21;5.47;;;2.38;;
11197;SDS011;5655;48.744;9.162;2024-02-16T02:08:46;3.70;;;2.35;;
11197;SDS011;5655;48.744;9.162;2024-02-16T02:11:12;3.35;;;2.55;;
11197;SDS011;5655;48.744;9.162;2024-02-16T02:13:37;6.70;;;3.05;;
11197;SDS011;5655;48.744;9.162;2024-02-16T02:16:03;2.90;;;2.20;;
11197;SDS011;5655;48.744;9.162;2024-02-16T02:18:31;3.75;;;2.30;;
11197;SDS011;5655;48.744;9.162;2024-02-16T02:20:56;2.83;;;2.15;;
11197;SDS011;5655;48.744;9.162;2024-02-16T02:23:21;6.80;;;2.70;;
11197;SDS011;5655;48.744;9.162;2024-02-16T02:25:47;3.22;;;2.28;;
11197;SDS011;5655;48.744;9.162;2024-02-16T02:28:14;2.95;;;2.28;;
11197;SDS011;5655;48.744;9.162;2024-02-16T02:30:40;3.92;;;2.33;;
11197;SDS011;5655;48.744;9.162;2024-02-16T02:33:06;3.97;;;2.33;;
11197;SDS011;5655;48.744;9.162;2024-02-16T02:35:31;4.45;;;2.30;;
11197;SDS011;5655;48.744;9.162;2024-02-16T02:37:57;4.47;;;2.55;;
11197;SDS011;5655;48.744;9.162;2024-02-16T02:40:22;3.70;;;2.60;;
11197;SDS011;5655;48.744;9.162;2024-02-16T02:42:47;3.88;;;2.30;;
11197;SDS011;5655;48.744;9.162;2024-02-16T02:45:13;3.10;;;2.10;;
11197;SDS011;5655;48.744;9.162;2024-02-16T02:47:38;3.60;;;2.17;;
11197;SDS011;5655;48.744;9.162;2024-02-16T02:50:04;2.50;;;2.10;;
11197;SDS011;5655;48.744;9.162;2024-02-16T02:52:29;3.05;;;1.90;;
11197;SDS011;5655;48.744;9.162;2024-02-16T02:54:55;2.30;;;1.90;;
11197;SDS011;5655;48.744;9.162;2024-02-16T02:57:20;2.67;;;1.95;;
11197;SDS011;5655;48.744;9.162;2024-02-16T02:59:45;2.63;;;2.20;;
11197;SDS011;5655;48.744;9.162;2024-02-16T03:02:11;2.47;;;2.00;;
11197;SDS011;5655;48.744;9.162;2024-02-16T03:04:36;2.63;;;1.98;;
11197;SDS011;5655;48.744;9.162;2024-02-16T03:07:01;4.20;;;2.00;;
11197;SDS011;5655;48.744;9.162;2024-02-16T03:09:26;1.85;;;1.63;;
11197;SDS011;5655;48.744;9.162;2024-02-16T03:11:52;4.75;;;2.28;;
11197;SDS011;5655;48.744;9.162;2024-02-16T03:14:18;3.78;;;2.38;;
11197;SDS011;5655;48.744;9.162;2024-02-16T03:16:43;3.28;;;2.45;;
11197;SDS011;5655;48.744;9.162;2024-02-16T03:19:08;2.50;;;2.00;;
11197;SDS011;5655;48.744;9.162;2024-02-16T03:21:34;2.45;;;2.00;;
11197;SDS011;5655;48.744;9.162;2024-02-16T03:24:00;2.70;;;1.70;;
11197;SDS011;5655;48.744;9.162;2024-02-16T03:26:26;2.78;;;2.08;;
11197;SDS011;5655;48.744;9.162;2024-02-16T03:28:52;3.53;;;2.35;;
11197;SDS011;5655;48.744;9.162;2024-02-16T03:33:47;2.42;;;2.15;;
11197;SDS011;5655;48.744;9.162;2024-02-16T03:36:13;3.97;;;2.40;;
11197;SDS011;5655;48.744;9.162;2024-02-16T03:38:42;2.67;;;2.40;;
11197;SDS011;5655;48.744;9.162;2024-02-16T03:41:15;4.60;;;2.30;;
11197;SDS011;5655;48.744;9.162;2024-02-16T03:43:43;2.95;;;2.05;;
11197;SDS011;5655;48.744;9.162;2024-02-16T03:46:09;2.90;;;2.13;;
11197;SDS011;5655;48.744;9.162;2024-02-16T03:48:35;3.00;;;1.83;;
11197;SDS011;5655;48.744;9.162;2024-02-16T03:51:00;2.83;;;2.13;;
11197;SDS011;5655;48.744;9.162;2024-02-16T03:53:28;3.30;;;2.03;;
11197;SDS011;5655;48.744;9.162;2024-02-16T03:55:53;3.72;;;1.92;;
11197;SDS011;5655;48.744;9.162;2024-02-16T03:58:19;4.50;;;1.98;;
11197;SDS011;5655;48.744;9.162;2024-02-16T04:00:44;3.00;;;1.95;;
11197;SDS011;5655;48.744;9.162;2024-02-16T04:03:09;3.13;;;2.25;;
11197;SDS011;5655;48.744;9.162;2024-02-16T04:05:35;2.78;;;2.10;;
11197;SDS011;5655;48.744;9.162;2024-02-16T04:08:03;2.72;;;2.25;;
11197;SDS011;5655;48.744;9.162;2024-02-16T04:10:29;4.18;;;2.63;;
11197;SDS011;5655;48.744;9.162;2024-02-16T04:12:54;4.18;;;2.15;;
11197;SDS011;5655;48.744;9.162;2024-02-16T04:15:20;3.88;;;2.50;;
11197;SDS011;5655;48.744;9.162;2024-02-16T04:17:45;6.25;;;2.88;;
11197;SDS011;5655;48.744;9.162;2024-02-16T04:20:10;4.70;;;2.88;;
11197;SDS011;5655;48.744;9.162;2024-02-16T04:22:36;6.20;;;3.10;;
11197;SDS011;5655;48.744;9.162;2024-02-16T04:25:03;3.88;;;3.00;;
11197;SDS011;5655;48.744;9.162;2024-02-16T04:27:29;5.05;;;3.00;;
11197;SDS011;5655;48.744;9.162;2024-02-16T04:29:54;6.28;;;3.10;;
11197;SDS011;5655;48.744;9.162;2024-02-16T04:32:20;5.25;;;2.85;;
11197;SDS011;5655;48.744;9.162;2024-02-16T04:34:45;6.72;;;3.08;;
11197;SDS011;5655;48.744;9.162;2024-02-16T04:37:11;5.25;;;2.78;;
11197;SDS011;5655;48.744;9.162;2024-02-16T04:39:37;4.50;;;3.05;;
11197;SDS011;5655;48.744;9.162;2024-02-16T04:42:03;3.97;;;2.70;;
11197;SDS011;5655;48.744;9.162;2024-02-16T04:44:29;5.45;;;2.90;;
11197;SDS011;5655;48.744;9.162;2024-02-16T04:46:54;6.95;;;3.15;;
11197;SDS011;5655;48.744;9.162;2024-02-16T04:49:20;5.07;;;3.00;;
11197;SDS011;5655;48.744;9.162;2024-02-16T04:51:46;4.47;;;3.08;;
11197;SDS011;5655;48.744;9.162;2024-02-16T04:54:12;4.33;;;3.10;;
11197;SDS011;5655;48.744;9.162;2024-02-16T04:56:38;3.97;;;3.03;;
11197;SDS011;5655;48.744;9.162;2024-02-16T04:59:04;6.55;;;3.10;;
11197;SDS011;5655;48.744;9.162;2024-02-16T05:01:30;5.65;;;3.47;;
11197;SDS011;5655;48.744;9.162;2024-02-16T05:03:57;4.47;;;3.20;;
11197;SDS011;5655;48.744;9.162;2024-02-16T05:06:23;5.18;;;3.53;;
11197;SDS011;5655;48.744;9.162;2024-02-16T05:08:48;7.38;;;3.55;;
11197;SDS011;5655;48.744;9.162;2024-02-16T05:11:15;4.53;;;3.50;;
11197;SDS011;5655;48.744;9.162;2024-02-16T05:13:40;4.88;;;3.40;;
11197;SDS011;5655;48.744;9.162;2024-02-16T05:16:10;5.28;;;3.40;;
11197;SDS011;5655;48.744;9.162;2024-02-16T05:18:37;4.72;;;3.55;;
11197;SDS011;5655;48.744;9.162;2024-02-16T05:21:03;6.60;;;4.10;;
11197;SDS011;5655;48.744;9.162;2024-02-16T05:23:28;5.00;;;4.25;;
11197;SDS011;5655;48.744;9.162;2024-02-16T05:25:54;7.35;;;3.63;;
11197;SDS011;5655;48.744;9.162;2024-02-16T05:28:19;7.05;;;3.90;;
11197;SDS011;5655;48.744;9.162;2024-02-16T05:30:45;6.28;;;3.83;;
11197;SDS011;5655;48.744;9.162;2024-02-16T05:33:10;6.68;;;4.05;;
11197;SDS011;5655;48.744;9.162;2024-02-16T05:35:36;7.00;;;4.25;;
11197;SDS011;5655;48.744;9.162;2024-02-16T05:38:04;8.10;;;4.57;;
11197;SDS011;5655;48.744;9.162;2024-02-16T05:40:35;4.90;;;3.55;;
11197;SDS011;5655;48.744;9.162;2024-02-16T05:43:18;5.75;;;3.70;;
11197;SDS011;5655;48.744;9.162;2024-02-16T05:45:44;6.03;;;3.83;;
11197;SDS011;5655;48.744;9.162;2024-02-16T05:48:09;5.35;;;3.72;;
11197;SDS011;5655;48.744;9.162;2024-02-16T05:50:35;4.90;;;3.70;;
11197;SDS011;5655;48.744;9.162;2024-02-16T05:53:00;5.72;;;3.33;;
11197;SDS011;5655;48.744;9.162;2024-02-16T05:55:26;5.57;;;3.75;;
11197;SDS011;5655;48.744;9.162;2024-02-16T05:57:51;6.40;;;3.63;;
11197;SDS011;5655;48.744;9.162;2024-02-16T06:00:16;4.30;;;3.40;;
11197;SDS011;5655;48.744;9.162;2024-02-16T06:02:42;7.15;;;3.85;;
11197;SDS011;5655;48.744;9.162;2024-02-16T06:05:07;6.03;;;3.55;;
11197;SDS011;5655;48.744;9.162;2024-02-16T06:07:33;5.70;;;4.05;;
11197;SDS011;5655;48.744;9.162;2024-02-16T06:10:03;5.13;;;3.60;;
11197;SDS011;5655;48.744;9.162;2024-02-16T06:12:32;7.30;;;3.75;;
11197;SDS011;5655;48.744;9.162;2024-02-16T06:14:57;9.77;;;3.95;;
11197;SDS011;5655;48.744;9.162;2024-02-16T06:17:23;7.85;;;4.15;;
11197;SDS011;5655;48.744;9.162;2024-02-16T06:19:48;9.63;;;3.83;;
11197;SDS011;5655;48.744;9.162;2024-02-16T06:22:14;4.50;;;3.70;;
11197;SDS011;5655;48.744;9.162;2024-02-16T06:24:39;7.13;;;4.10;;
11197;SDS011;5655;48.744;9.162;2024-02-16T06:27:05;5.97;;;3.83;;
11197;SDS011;5655;48.744;9.162;2024-02-16T06:29:30;7.90;;;4.13;;
11197;SDS011;5655;48.744;9.162;2024-02-16T06:31:56;7.90;;;4.45;;
11197;SDS011;5655;48.744;9.162;2024-02-16T06:34:21;5.43;;;3.72;;
11197;SDS011;5655;48.744;9.162;2024-02-16T06:36:47;5.38;;;3.83;;
11197;SDS011;5655;48.744;9.162;2024-02-16T06:39:16;6.53;;;3.72;;
11197;SDS011;5655;48.744;9.162;2024-02-16T06:41:43;5.03;;;3.42;;
11197;SDS011;5655;48.744;9.162;2024-02-16T06:44:10;4.68;;;3.15;;
11197;SDS011;5655;48.744;9.162;2024-02-16T06:46:36;3.90;;;3.20;;
11197;SDS011;5655;48.744;9.162;2024-02-16T06:49:01;6.90;;;3.47;;
11197;SDS011;5655;48.744;9.162;2024-02-16T06:51:27;9.07;;;3.60;;
11197;SDS011;5655;48.744;9.162;2024-02-16T06:53:53;5.75;;;3.38;;
11197;SDS011;5655;48.744;9.162;2024-02-16T06:56:19;6.05;;;3.33;;
11197;SDS011;5655;48.744;9.162;2024-02-16T06:58:47;6.97;;;3.60;;
11197;SDS011;5655;48.744;9.162;2024-02-16T07:01:13;5.43;;;3.58;;
11197;SDS011;5655;48.744;9.162;2024-02-16T07:03:40;5.28;;;4.05;;
11197;SDS011;5655;48.744;9.162;2024-02-16T07:06:06;5.00;;;3.22;;
11197;SDS011;5655;48.744;9.162;2024-02-16T07:08:35;6.72;;;3.83;;
11197;SDS011;5655;48.744;9.162;2024-02-16T07:11:03;8.73;;;3.85;;
11197;SDS011;5655;48.744;9.162;2024-02-16T07:13:29;4.43;;;3.28;;
11197;SDS011;5655;48.744;9.162;2024-02-16T07:15:55;4.65;;;3.72;;
11197;SDS011;5655;48.744;9.162;2024-02-16T07:18:20;5.35;;;3.60;;
11197;SDS011;5655;48.744;9.162;2024-02-16T07:20:46;5.32;;;3.40;;
11197;SDS011;5655;48.744;9.162;2024-02-16T07:23:12;6.38;;;3.45;;
11197;SDS011;5655;48.744;9.162;2024-02-16T07:25:40;4.25;;;2.65;;
11197;SDS011;5655;48.744;9.162;2024-02-16T07:28:05;4.57;;;2.95;;
11197;SDS011;5655;48.744;9.162;2024-02-16T07:30:30;6.45;;;3.22;;
11197;SDS011;5655;48.744;9.162;2024-02-16T07:32:56;5.28;;;3.03;;
11197;SDS011;5655;48.744;9.162;2024-02-16T07:35:21;3.63;;;2.78;;
11197;SDS011;5655;48.744;9.162;2024-02-16T07:37:49;5.18;;;3.15;;
11197;SDS011;5655;48.744;9.162;2024-02-16T07:40:18;5.80;;;2.80;;
11197;SDS011;5655;48.744;9.162;2024-02-16T07:42:45;4.40;;;2.53;;
11197;SDS011;5655;48.744;9.162;2024-02-16T07:45:10;4.80;;;2.92;;
11197;SDS011;5655;48.744;9.162;2024-02-16T07:47:37;4.93;;;2.75;;
11197;SDS011;5655;48.744;9.162;2024-02-16T07:50:03;3.45;;;2.75;;
11197;SDS011;5655;48.744;9.162;2024-02-16T07:52:28;3.25;;;2.30;;
11197;SDS011;5655;48.744;9.162;2024-02-16T07:54:54;4.43;;;2.70;;
11197;SDS011;5655;48.744;9.162;2024-02-16T07:57:19;5.28;;;2.75;;
11197;SDS011;5655;48.744;9.162;2024-02-16T07:59:44;4.72;;;2.78;;
11197;SDS011;5655;48.744;9.162;2024-02-16T08:02:10;9.80;;;3.28;;
11197;SDS011;5655;48.744;9.162;2024-02-16T08:04:40;6.80;;;3.22;;
11197;SDS011;5655;48.744;9.162;2024-02-16T08:07:06;5.85;;;3.10;;
11197;SDS011;5655;48.744;9.162;2024-02-16T08:09:31;4.10;;;2.70;;
11197;SDS011;5655;48.744;9.162;2024-02-16T08:11:56;4.05;;;2.67;;
11197;SDS011;5655;48.744;9.162;2024-02-16T08:14:22;9.38;;;2.83;;
11197;SDS011;5655;48.744;9.162;2024-02-16T08:16:47;4.00;;;2.95;;
11197;SDS011;5655;48.744;9.162;2024-02-16T08:19:12;4.28;;;2.95;;
11197;SDS011;5655;48.744;9.162;2024-02-16T08:21:39;4.05;;;2.47;;
11197;SDS011;5655;48.744;9.162;2024-02-16T08:24:04;3.83;;;2.70;;
11197;SDS011;5655;48.744;9.162;2024-02-16T08:26:30;5.40;;;2.90;;
11197;SDS011;5655;48.744;9.162;2024-02-16T08:28:56;3.97;;;2.53;;
11197;SDS011;5655;48.744;9.162;2024-02-16T08:31:21;4.30;;;2.42;;
11197;SDS011;5655;48.744;9.162;2024-02-16T08:33:46;8.15;;;2.83;;
11197;SDS011;5655;48.744;9.162;2024-02-16T08:36:12;4.15;;;2.35;;
11197;SDS011;5655;48.744;9.162;2024-02-16T08:38:38;3.47;;;2.33;;
11197;SDS011;5655;48.744;9.162;2024-02-16T08:41:04;3.95;;;2.63;;
11197;SDS011;5655;48.744;9.162;2024-02-16T08:43:29;5.72;;;2.38;;
11197;SDS011;5655;48.744;9.162;2024-02-16T08:45:55;2.88;;;2.08;;
11197;SDS011;5655;48.744;9.162;2024-02-16T08:48:21;3.40;;;2.20;;
11197;SDS011;5655;48.744;9.162;2024-02-16T08:50:46;2.63;;;2.00;;
11197;SDS011;5655;48.744;9.162;2024-02-16T08:53:12;2.83;;;2.15;;
11197;SDS011;5655;48.744;9.162;2024-02-16T08:55:39;4.15;;;1.65;;
11197;SDS011;5655;48.744;9.162;2024-02-16T08:58:07;4.43;;;1.63;;
11197;SDS011;5655;48.744;9.162;2024-02-16T09:00:32;2.85;;;1.70;;
11197;SDS011;5655;48.744;9.162;2024-02-16T09:02:58;2.15;;;1.70;;
11197;SDS011;5655;48.744;9.162;2024-02-16T09:05:23;2.78;;;1.30;;
11197;SDS011;5655;48.744;9.162;2024-02-16T09:07:49;2.15;;;1.50;;
11197;SDS011;5655;48.744;9.162;2024-02-16T09:10:14;1.42;;;1.10;;
11197;SDS011;5655;48.744;9.162;2024-02-16T09:12:40;2.13;;;1.50;;
11197;SDS011;5655;48.744;9.162;2024-02-16T09:15:05;1.90;;;1.10;;
11197;SDS011;5655;48.744;9.162;2024-02-16T09:17:31;6.85;;;1.40;;
11197;SDS011;5655;48.744;9.162;2024-02-16T09:19:57;3.60;;;1.52;;
11197;SDS011;5655;48.744;9.162;2024-02-16T09:22:22;3.50;;;1.33;;
11197;SDS011;5655;48.744;9.162;2024-02-16T09:24:48;2.22;;;1.17;;
11197;SDS011;5655;48.744;9.162;2024-02-16T09:27:13;1.73;;;1.20;;
11197;SDS011;5655;48.744;9.162;2024-02-16T09:29:38;3.13;;;1.40;;
11197;SDS011;5655;48.744;9.162;2024-02-16T09:32:04;3.10;;;1.30;;
11197;SDS011;5655;48.744;9.162;2024-02-16T09:34:31;1.60;;;1.10;;
11197;SDS011;5655;48.744;9.162;2024-02-16T09:36:56;1.88;;;1.48;;
11197;SDS011;5655;48.744;9.162;2024-02-16T09:39:22;2.95;;;1.20;;
11197;SDS011;5655;48.744;9.162;2024-02-16T09:41:49;4.55;;;1.55;;
11197;SDS011;5655;48.744;9.162;2024-02-16T09:44:16;2.97;;;1.35;;
11197;SDS011;5655;48.744;9.162;2024-02-16T09:46:42;1.85;;;1.10;;
11197;SDS011;5655;48.744;9.162;2024-02-16T09:49:08;4.15;;;1.23;;
11197;SDS011;5655;48.744;9.162;2024-02-16T09:51:36;2.63;;;1.40;;
11197;SDS011;5655;48.744;9.162;2024-02-16T09:54:02;2.80;;;1.48;;
11197;SDS011;5655;48.744;9.162;2024-02-16T09:56:28;3.13;;;1.80;;
11197;SDS011;5655;48.744;9.162;2024-02-16T09:58:53;2.63;;;1.55;;
11197;SDS011;5655;48.744;9.162;2024-02-16T10:01:22;1.75;;;1.20;;
11197;SDS011;5655;48.744;9.162;2024-02-16T10:03:49;2.42;;;1.20;;
11197;SDS011;5655;48.744;9.162;2024-02-16T10:06:15;3.22;;;1.33;;
11197;SDS011;5655;48.744;9.162;2024-02-16T10:11:16;2.45;;;1.10;;
11197;SDS011;5655;48.744;9.162;2024-02-16T10:13:43;2.03;;;1.20;;
11197;SDS011;5655;48.744;9.162;2024-02-16T10:16:18;1.80;;;1.35;;
11197;SDS011;5655;48.744;9.162;2024-02-16T10:18:43;2.95;;;1.70;;
11197;SDS011;5655;48.744;9.162;2024-02-16T10:21:09;3.40;;;1.50;;
11197;SDS011;5655;48.744;9.162;2024-02-16T10:23:34;4.70;;;1.60;;
11197;SDS011;5655;48.744;9.162;2024-02-16T10:25:59;2.50;;;1.75;;
11197;SDS011;5655;48.744;9.162;2024-02-16T10:28:25;2.20;;;1.30;;
11197;SDS011;5655;48.744;9.162;2024-02-16T10:30:57;1.10;;;1.00;;
11197;SDS011;5655;48.744;9.162;2024-02-16T10:33:26;2.17;;;1.30;;
11197;SDS011;5655;48.744;9.162;2024-02-16T10:35:53;2.88;;;1.40;;
11197;SDS011;5655;48.744;9.162;2024-02-16T10:38:21;3.67;;;1.58;;
11197;SDS011;5655;48.744;9.162;2024-02-16T10:40:47;4.05;;;1.60;;
11197;SDS011;5655;48.744;9.162;2024-02-16T10:43:14;2.80;;;1.40;;
11197;SDS011;5655;48.744;9.162;2024-02-16T10:45:41;2.38;;;1.58;;
11197;SDS011;5655;48.744;9.162;2024-02-16T10:48:06;2.13;;;1.52;;
11197;SDS011;5655;48.744;9.162;2024-02-16T10:50:35;3.95;;;1.33;;
11197;SDS011;5655;48.744;9.162;2024-02-16T10:53:04;2.13;;;1.42;;
11197;SDS011;5655;48.744;9.162;2024-02-16T10:55:37;6.30;;;1.77;;
11197;SDS011;5655;48.744;9.162;2024-02-16T10:58:02;3.55;;;1.23;;
11197;SDS011;5655;48.744;9.162;2024-02-16T11:00:28;3.08;;;1.60;;
11197;SDS011;5655;48.744;9.162;2024-02-16T11:02:54;2.15;;;1.40;;
11197;SDS011;5655;48.744;9.162;2024-02-16T11:05:40;5.22;;;1.60;;
11197;SDS011;5655;48.744;9.162;2024-02-16T11:08:13;4.97;;;1.48;;
11197;SDS011;5655;48.744;9.162;2024-02-16T11:10:40;3.67;;;1.65;;
11197;SDS011;5655;48.744;9.162;2024-02-16T11:13:06;3.95;;;1.40;;
11197;SDS011;5655;48.744;9.162;2024-02-16T11:15:33;1.92;;;1.45;;
11197;SDS011;5655;48.744;9.162;2024-02-16T11:18:00;4.38;;;1.65;;
11197;SDS011;5655;48.744;9.162;2024-02-16T11:20:27;3.75;;;1.42;;
11197;SDS011;5655;48.744;9.162;2024-02-16T11:22:52;3.35;;;1.90;;
11197;SDS011;5655;48.744;9.162;2024-02-16T11:25:18;2.42;;;1.52;;
11197;SDS011;5655;48.744;9.162;2024-02-16T11:27:46;2.30;;;1.60;;
11197;SDS011;5655;48.744;9.162;2024-02-16T11:30:12;2.97;;;1.90;;
11197;SDS011;5655;48.744;9.162;2024-02-16T11:32:37;4.88;;;1.88;;
11197;SDS011;5655;48.744;9.162;2024-02-16T11:35:06;2.17;;;1.60;;
11197;SDS011;5655;48.744;9.162;2024-02-16T11:37:33;4.15;;;1.80;;
11197;SDS011;5655;48.744;9.162;2024-02-16T11:39:59;2.75;;;1.73;;
11197;SDS011;5655;48.744;9.162;2024-02-16T11:42:24;3.25;;;1.70;;
11197;SDS011;5655;48.744;9.162;2024-02-16T11:44:50;4.75;;;1.48;;
11197;SDS011;5655;48.744;9.162;2024-02-16T11:47:21;4.53;;;1.80;;
11197;SDS011;5655;48.744;9.162;2024-02-16T11:50:09;3.10;;;1.52;;
11197;SDS011;5655;48.744;9.162;2024-02-16T11:52:36;4.18;;;1.73;;
11197;SDS011;5655;48.744;9.162;2024-02-16T11:55:03;5.40;;;1.70;;
11197;SDS011;5655;48.744;9.162;2024-02-16T11:57:29;4.75;;;2.00;;
11197;SDS011;5655;48.744;9.162;2024-02-16T11:59:55;4.03;;;1.67;;
11197;SDS011;5655;48.744;9.162;2024-02-16T12:02:23;3.00;;;1.60;;
11197;SDS011;5655;48.744;9.162;2024-02-16T12:04:57;3.20;;;1.80;;
11197;SDS011;5655;48.744;9.162;2024-02-16T12:07:24;2.88;;;1.63;;
11197;SDS011;5655;48.744;9.162;2024-02-16T12:09:57;3.60;;;1.38;;
11197;SDS011;5655;48.744;9.162;2024-02-16T12:12:23;8.32;;;1.73;;
11197;SDS011;5655;48.744;9.162;2024-02-16T12:14:49;3.50;;;1.77;;
11197;SDS011;5655;48.744;9.162;2024-02-16T12:17:14;3.80;;;1.55;;
11197;SDS011;5655;48.744;9.162;2024-02-16T12:19:43;3.17;;;1.60;;
11197;SDS011;5655;48.744;9.162;2024-02-16T12:22:16;3.33;;;1.73;;
11197;SDS011;5655;48.744;9.162;2024-02-16T12:24:42;6.40;;;1.80;;
11197;SDS011;5655;48.744;9.162;2024-02-16T12:27:08;3.83;;;1.40;;
11197;SDS011;5655;48.744;9.162;2024-02-16T12:29:33;6.30;;;2.13;;
11197;SDS011;5655;48.744;9.162;2024-02-16T12:31:58;4.25;;;1.88;;
11197;SDS011;5655;48.744;9.162;2024-02-16T12:34:24;3.35;;;1.50;;
11197;SDS011;5655;48.744;9.162;2024-02-16T12:36:50;3.33;;;1.60;;
11197;SDS011;5655;48.744;9.162;2024-02-16T12:39:16;6.28;;;1.42;;
11197;SDS011;5655;48.744;9.162;2024-02-16T12:41:41;2.90;;;1.58;;
11197;SDS011;5655;48.744;9.162;2024-02-16T12:44:08;3.25;;;1.65;;
11197;SDS011;5655;48.744;9.162;2024-02-16T12:46:33;4.97;;;2.05;;
11197;SDS011;5655;48.744;9.162;2024-02-16T12:48:59;5.95;;;1.42;;
11197;SDS011;5655;48.744;9.162;2024-02-16T12:51:24;2.80;;;1.42;;
11197;SDS011;5655;48.744;9.162;2024-02-16T12:53:49;6.32;;;1.52;;
11197;SDS011;5655;48.744;9.162;2024-02-16T12:56:15;4.45;;;1.45;;
11197;SDS011;5655;48.744;9.162;2024-02-16T12:58:40;2.83;;;1.20;;
11197;SDS011;5655;48.744;9.162;2024-02-16T13:01:06;2.13;;;1.38;;
11197;SDS011;5655;48.744;9.162;2024-02-16T13:03:34;5.38;;;1.90;;
11197;SDS011;5655;48.744;9.162;2024-02-16T13:06:00;5.57;;;1.67;;
11197;SDS011;5655;48.744;9.162;2024-02-16T13:08:26;4.70;;;1.70;;
11197;SDS011;5655;48.744;9.162;2024-02-16T13:10:52;2.30;;;1.42;;
11197;SDS011;5655;48.744;9.162;2024-02-16T13:13:17;5.63;;;1.73;;
11197;SDS011;5655;48.744;9.162;2024-02-16T13:15:43;4.93;;;1.90;;
11197;SDS011;5655;48.744;9.162;2024-02-16T13:18:08;2.92;;;1.10;;
11197;SDS011;5655;48.744;9.162;2024-02-16T13:20:33;4.03;;;1.90;;
11197;SDS011;5655;48.744;9.162;2024-02-16T13:23:00;6.80;;;1.67;;
11197;SDS011;5655;48.744;9.162;2024-02-16T13:25:25;5.15;;;1.95;;
11197;SDS011;5655;48.744;9.162;2024-02-16T13:27:51;3.85;;;1.67;;
11197;SDS011;5655;48.744;9.162;2024-02-16T13:30:16;4.38;;;1.95;;
11197;SDS011;5655;48.744;9.162;2024-02-16T13:32:41;5.22;;;1.92;;
11197;SDS011;5655;48.744;9.162;2024-02-16T13:35:07;4.85;;;1.73;;
11197;SDS011;5655;48.744;9.162;2024-02-16T13:37:33;3.03;;;1.60;;
11197;SDS011;5655;48.744;9.162;2024-02-16T13:39:58;6.15;;;2.35;;
11197;SDS011;5655;48.744;9.162;2024-02-16T13:42:23;3.60;;;2.15;;
11197;SDS011;5655;48.744;9.162;2024-02-16T13:44:51;6.55;;;2.50;;
11197;SDS011;5655;48.744;9.162;2024-02-16T13:47:16;4.47;;;2.33;;
11197;SDS011;5655;48.744;9.162;2024-02-16T13:49:42;3.17;;;2.10;;
11197;SDS011;5655;48.744;9.162;2024-02-16T13:52:07;5.07;;;2.22;;
11197;SDS011;5655;48.744;9.162;2024-02-16T13:54:33;5.15;;;2.70;;
11197;SDS011;5655;48.744;9.162;2024-02-16T13:57:00;9.20;;;2.92;;
11197;SDS011;5655;48.744;9.162;2024-02-16T13:59:25;5.30;;;2.20;;
11197;SDS011;5655;48.744;9.162;2024-02-16T14:01:50;8.48;;;2.83;;
11197;SDS011;5655;48.744;9.162;2024-02-16T14:04:16;3.95;;;2.40;;
11197;SDS011;5655;48.744;9.162;2024-02-16T14:06:42;6.95;;;2.97;;
11197;SDS011;5655;48.744;9.162;2024-02-16T14:09:07;9.95;;;2.70;;
11197;SDS011;5655;48.744;9.162;2024-02-16T14:11:34;5.38;;;2.35;;
11197;SDS011;5655;48.744;9.162;2024-02-16T14:14:00;6.45;;;2.22;;
11197;SDS011;5655;48.744;9.162;2024-02-16T14:16:26;3.47;;;2.33;;
11197;SDS011;5655;48.744;9.162;2024-02-16T14:18:52;5.10;;;2.17;;
11197;SDS011;5655;48.744;9.162;2024-02-16T14:21:17;4.47;;;2.05;;
11197;SDS011;5655;48.744;9.162;2024-02-16T14:23:42;3.30;;;2.30;;
11197;SDS011;5655;48.744;9.162;2024-02-16T14:26:08;4.10;;;1.92;;
11197;SDS011;5655;48.744;9.162;2024-02-16T14:28:35;4.32;;;2.20;;
11197;SDS011;5655;48.744;9.162;2024-02-16T14:31:00;4.07;;;1.90;;
11197;SDS011;5655;48.744;9.162;2024-02-16T14:33:25;4.88;;;2.42;;
11197;SDS011;5655;48.744;9.162;2024-02-16T14:35:51;4.18;;;2.17;;
11197;SDS011;5655;48.744;9.162;2024-02-16T14:38:16;4.93;;;2.05;;
11197;SDS011;5655;48.744;9.162;2024-02-16T14:40:42;3.83;;;2.10;;
11197;SDS011;5655;48.744;9.162;2024-02-16T14:43:08;7.32;;;2.50;;
11197;SDS011;5655;48.744;9.162;2024-02-16T14:45:34;8.60;;;2.92;;
11197;SDS011;5655;48.744;9.162;2024-02-16T14:47:59;7.05;;;2.00;;
11197;SDS011;5655;48.744;9.162;2024-02-16T14:50:24;5.15;;;1.70;;
11197;SDS011;5655;48.744;9.162;2024-02-16T14:52:50;7.50;;;1.88;;
11197;SDS011;5655;48.744;9.162;2024-02-16T14:55:15;4.72;;;1.95;;
11197;SDS011;5655;48.744;9.162;2024-02-16T14:57:41;4.00;;;1.98;;